Time;durP1;ratioP1;P1;durP2;ratioP2;P2;SDS_P1;SDS_P2;PMS_P1;PMS_P2;Temp;Humidity;BMP_temperature;BMP_pressure;BME280_temperature;BME280_humidity;BME280_pressure;Samples;Min_cycle;Max_cycle;Signal;HPM_P1;HPM_P2
2022/12/24 00:00:01;;;;;;;73.62;35.60;;;;;;;7.01;100.00;99629.56;1735337;81;25725;-77
2022/12/24 00:02:27;;;;;;;71.42;34.63;;;;;;;7.03;100.00;99632.03;1740615;81;25843;-77
2022/12/24 00:04:54;;;;;;;79.82;37.08;;;;;;;7.02;100.00;99632.53;1722733;81;25777;-77
2022/12/24 00:07:20;;;;;;;73.97;36.00;;;;;;;7.01;100.00;99642.34;1698157;82;26271;-77
2022/12/24 00:09:46;;;;;;;69.55;34.00;;;;;;;7.00;100.00;99638.05;1733083;81;27987;-77
2022/12/24 00:12:12;;;;;;;76.40;33.67;;;;;;;7.02;100.00;99641.84;1732322;81;25900;-77
2022/12/24 00:14:39;;;;;;;75.65;34.80;;;;;;;7.03;100.00;99638.69;1705805;82;25964;-77
2022/12/24 00:17:05;;;;;;;69.47;31.97;;;;;;;7.04;100.00;99641.16;1703405;82;25854;-77
2022/12/24 00:19:31;;;;;;;73.97;34.73;;;;;;;7.05;100.00;99641.48;1706923;82;25776;-77
2022/12/24 00:21:58;;;;;;;71.50;35.08;;;;;;;7.05;100.00;99634.83;1675831;83;27467;-76
2022/12/24 00:24:24;;;;;;;87.45;38.10;;;;;;;7.06;100.00;99635.14;1738602;81;25786;-77
2022/12/24 00:26:50;;;;;;;76.50;35.15;;;;;;;7.06;100.00;99639.66;1736573;80;25305;-77
2022/12/24 00:29:18;;;;;;;75.80;33.15;;;;;;;7.03;100.00;99641.66;1724396;81;26401;-76
2022/12/24 00:31:45;;;;;;;72.62;33.10;;;;;;;7.03;100.00;99642.69;1710764;81;25861;-76
2022/12/24 00:34:12;;;;;;;80.62;35.35;;;;;;;7.01;100.00;99641.55;1735217;81;27503;-77
2022/12/24 00:36:38;;;;;;;78.52;35.55;;;;;;;7.01;100.00;99645.02;1744386;81;26439;-77
2022/12/24 00:39:04;;;;;;;81.40;33.75;;;;;;;6.99;100.00;99639.05;1712167;82;25768;-77
2022/12/24 00:41:30;;;;;;;75.65;34.45;;;;;;;6.96;100.00;99639.94;1719594;82;26487;-77
2022/12/24 00:44:01;;;;;;;72.45;32.98;;;;;;;6.93;100.00;99646.45;1703580;82;25271;-77
2022/12/24 00:46:29;;;;;;;72.90;33.27;;;;;;;6.92;100.00;99640.00;1701190;83;27443;-76
2022/12/24 00:48:56;;;;;;;76.17;36.13;;;;;;;6.92;100.00;99636.00;1700740;83;25752;-77
2022/12/24 00:51:24;;;;;;;74.42;33.73;;;;;;;6.87;100.00;99633.90;1686533;83;25803;-77
2022/12/24 00:53:51;;;;;;;74.10;32.93;;;;;;;6.85;100.00;99622.61;1688155;83;25811;-76
2022/12/24 00:56:18;;;;;;;77.20;35.38;;;;;;;6.85;100.00;99627.94;1693058;83;26475;-77
2022/12/24 00:58:46;;;;;;;83.65;35.17;;;;;;;6.85;100.00;99631.93;1698482;82;27494;-77
2022/12/24 01:01:13;;;;;;;78.15;34.58;;;;;;;6.86;100.00;99638.89;1677838;84;26418;-76
2022/12/24 01:03:39;;;;;;;71.55;32.48;;;;;;;6.86;100.00;99640.75;1681692;84;26111;-77
2022/12/24 01:06:09;;;;;;;81.05;35.00;;;;;;;6.84;100.00;99639.58;1739451;81;26977;-77
2022/12/24 01:08:37;;;;;;;80.30;35.95;;;;;;;6.83;100.00;99641.11;1744940;81;25732;-77
2022/12/24 01:11:05;;;;;;;69.25;34.55;;;;;;;6.82;100.00;99642.94;1731827;81;27465;-76
2022/12/24 01:13:31;;;;;;;84.70;36.42;;;;;;;6.85;100.00;99645.73;1739338;81;25842;-77
2022/12/24 01:15:58;;;;;;;72.50;35.33;;;;;;;6.83;100.00;99641.94;1736652;81;25795;-77
2022/12/24 01:18:24;;;;;;;86.32;36.15;;;;;;;6.84;100.00;99639.58;1725172;82;25772;-77
2022/12/24 01:21:01;;;;;;;78.62;35.75;;;;;;;6.86;100.00;99642.08;1724656;82;25811;-76
2022/12/24 01:23:29;;;;;;;86.87;38.85;;;;;;;6.87;100.00;99638.39;1725639;82;27424;-77
2022/12/24 01:26:01;;;;;;;89.17;35.33;;;;;;;6.88;100.00;99640.05;1707498;82;26522;-77
2022/12/24 01:28:28;;;;;;;87.37;38.65;;;;;;;6.89;100.00;99644.35;1702124;82;25945;-77
2022/12/24 01:30:54;;;;;;;86.30;35.17;;;;;;;6.88;100.00;99636.89;1673413;84;26530;-76
2022/12/24 01:33:20;;;;;;;88.92;36.23;;;;;;;6.87;100.00;99640.55;1696532;83;25796;-76
2022/12/24 01:35:47;;;;;;;79.42;34.45;;;;;;;6.86;100.00;99643.41;1701388;83;27467;-76
2022/12/24 01:38:14;;;;;;;108.60;32.17;;;;;;;6.84;100.00;99639.58;1684892;83;25997;-77
2022/12/24 01:43:31;;;;;;;111.72;32.13;;;;;;;6.78;100.00;99634.17;1692172;83;25926;-77
2022/12/24 01:46:21;;;;;;;73.20;32.20;;;;;;;6.69;100.00;99632.12;1710389;82;25920;-77
2022/12/24 01:49:01;;;;;;;74.43;33.87;;;;;;;6.65;100.00;99633.50;1711390;82;28291;-77
2022/12/24 01:51:51;;;;;;;87.90;33.60;;;;;;;6.63;100.00;99638.72;1724616;82;25941;-75
2022/12/24 01:54:32;;;;;;;69.07;31.95;;;;;;;6.62;100.00;99638.38;1718498;82;26406;-77
2022/12/24 01:57:03;;;;;;;66.87;30.90;;;;;;;6.62;100.00;99642.37;1713768;82;26505;-77
2022/12/24 01:59:31;;;;;;;67.32;32.33;;;;;;;6.63;100.00;99637.38;1724798;82;25285;-77
2022/12/24 02:01:58;;;;;;;62.80;30.23;;;;;;;6.66;100.00;99643.65;1718368;82;28270;-77
2022/12/24 02:04:52;;;;;;;61.68;30.52;;;;;;;6.66;100.00;99633.01;1705397;81;25946;-77
2022/12/24 02:07:18;;;;;;;64.35;31.20;;;;;;;6.68;100.00;99635.81;1719620;82;25831;-76
2022/12/24 02:09:46;;;;;;;66.50;34.30;;;;;;;6.69;100.00;99634.78;1722967;82;26084;-76
2022/12/24 02:12:13;;;;;;;65.85;33.88;;;;;;;6.71;100.00;99635.45;1718566;82;25748;-76
2022/12/24 02:14:41;;;;;;;86.10;32.25;;;;;;;6.70;100.00;99632.95;1725706;82;26714;-76
2022/12/24 02:17:34;;;;;;;66.17;31.68;;;;;;;6.69;100.00;99635.31;1712911;82;25871;-76
2022/12/24 02:20:18;;;;;;;74.30;31.23;;;;;;;6.67;100.00;99628.82;1717529;82;25821;-76
2022/12/24 02:23:19;;;;;;;69.12;30.20;;;;;;;6.63;100.00;99628.88;1723228;82;25770;-77
2022/12/24 02:26:23;;;;;;;70.57;29.00;;;;;;;6.61;100.00;99620.25;1722936;82;26516;-76
2022/12/24 02:29:25;;;;;;;64.25;27.60;;;;;;;6.59;100.00;99622.77;1721705;81;27096;-77
2022/12/24 02:32:19;;;;;;;63.90;27.87;;;;;;;6.55;100.00;99624.16;1718409;82;26438;-76
2022/12/24 02:34:54;;;;;;;78.12;28.20;;;;;;;6.50;100.00;99630.03;1720263;81;25670;-77
2022/12/24 02:37:36;;;;;;;71.22;28.62;;;;;;;6.48;100.00;99626.73;1722839;82;25794;-76
2022/12/24 02:40:14;;;;;;;55.48;26.90;;;;;;;6.42;100.00;99631.45;1715580;82;26323;-76
2022/12/24 02:42:45;;;;;;;71.45;28.30;;;;;;;6.38;100.00;99630.17;1724920;82;27284;-76
2022/12/24 02:45:28;;;;;;;59.23;29.52;;;;;;;6.37;100.00;99636.52;1719946;82;25896;-76
2022/12/24 02:47:56;;;;;;;53.05;28.30;;;;;;;6.39;100.00;99637.66;1722497;82;25342;-76
2022/12/24 02:50:23;;;;;;;54.93;27.55;;;;;;;6.42;100.00;99634.11;1701611;82;26765;-76
2022/12/24 02:52:50;;;;;;;61.08;28.62;;;;;;;6.44;100.00;99638.75;1723380;82;25711;-76
2022/12/24 02:55:27;;;;;;;53.42;26.42;;;;;;;6.46;100.00;99634.59;1720186;82;27442;-77
2022/12/24 02:58:36;;;;;;;53.83;26.60;;;;;;;6.45;100.00;99636.42;1721225;82;26320;-77
2022/12/24 03:01:23;;;;;;;59.73;26.07;;;;;;;6.45;100.00;99636.42;1715778;82;26079;-77
2022/12/24 03:04:38;;;;;;;52.48;25.40;;;;;;;6.47;100.00;99646.38;1710310;82;25877;-76
2022/12/24 03:06:57;;;;;;;50.70;25.48;;;;;;;6.45;100.00;99651.05;1720601;82;26578;-77
2022/12/24 03:09:47;;;;;;;43.05;23.65;;;;;;;6.43;100.00;99647.75;1720271;82;27440;-77
2022/12/24 03:12:21;;;;;;;50.12;23.40;;;;;;;6.44;100.00;99648.55;1721112;82;25796;-76
2022/12/24 03:14:48;;;;;;;38.05;22.02;;;;;;;6.41;100.00;99646.28;1723818;82;25771;-76
2022/12/24 03:17:17;;;;;;;42.75;23.02;;;;;;;6.34;100.00;99643.52;1712627;82;25955;-76
2022/12/24 03:19:44;;;;;;;44.77;23.67;;;;;;;6.31;100.00;99641.22;1724275;82;26501;-76
2022/12/24 03:22:12;;;;;;;40.78;22.30;;;;;;;6.29;100.00;99639.77;1722245;82;27410;-76
2022/12/24 03:24:39;;;;;;;39.90;20.27;;;;;;;6.27;100.00;99641.27;1706015;82;25646;-76
2022/12/24 03:27:07;;;;;;;40.43;19.52;;;;;;;6.26;100.00;99642.78;1719545;82;25788;-76
2022/12/24 03:29:34;;;;;;;38.40;21.12;;;;;;;6.23;100.00;99635.49;1727071;82;25895;-76
2022/12/24 03:32:03;;;;;;;39.65;20.02;;;;;;;6.21;100.00;99641.50;1713974;82;26333;-77
2022/12/24 03:34:30;;;;;;;39.23;20.92;;;;;;;6.21;100.00;99646.82;1725953;82;28256;-77
2022/12/24 03:36:56;;;;;;;43.15;21.12;;;;;;;6.23;100.00;99642.64;1736409;81;26495;-77
2022/12/24 03:39:23;;;;;;;38.10;19.48;;;;;;;6.24;100.00;99644.30;1747552;81;25762;-76
2022/12/24 03:41:49;;;;;;;37.98;18.67;;;;;;;6.22;100.00;99651.64;1737125;81;26567;-77
2022/12/24 03:44:15;;;;;;;39.05;20.43;;;;;;;6.22;100.00;99648.98;1746688;81;25854;-77
2022/12/24 03:46:42;;;;;;;37.17;19.30;;;;;;;6.23;100.00;99652.78;1740644;81;27513;-77
2022/12/24 03:49:08;;;;;;;36.48;19.87;;;;;;;6.24;100.00;99654.94;1746228;81;26342;-76
2022/12/24 03:51:34;;;;;;;37.15;19.10;;;;;;;6.22;100.00;99654.30;1748730;81;25791;-76
2022/12/24 03:54:01;;;;;;;31.70;17.57;;;;;;;6.23;100.00;99657.27;1746768;81;25769;-76
2022/12/24 03:56:27;;;;;;;33.30;17.45;;;;;;;6.21;100.00;99652.14;1745174;81;25323;-77
2022/12/24 03:58:54;;;;;;;35.83;19.05;;;;;;;6.18;100.00;99649.83;1744802;81;27511;-77
2022/12/24 04:01:20;;;;;;;36.40;17.85;;;;;;;6.17;100.00;99653.52;1747065;81;25859;-77
2022/12/24 04:03:46;;;;;;;29.02;16.35;;;;;;;6.15;100.00;99647.55;1713061;82;25810;-76
2022/12/24 04:06:16;;;;;;;33.42;16.57;;;;;;;6.12;100.00;99645.73;1704457;82;25807;-76
2022/12/24 04:08:43;;;;;;;31.42;17.12;;;;;;;6.10;100.00;99643.27;1675204;82;26534;-76
2022/12/24 04:11:13;;;;;;;29.70;16.30;;;;;;;6.08;100.00;99648.44;1700767;82;27428;-77
2022/12/24 04:13:39;;;;;;;30.88;15.35;;;;;;;6.06;100.00;99655.77;1720417;81;26058;-76
2022/12/24 04:16:10;;;;;;;30.32;15.23;;;;;;;6.04;100.00;99646.66;1719787;81;26461;-76
2022/12/24 04:18:37;;;;;;;25.23;14.75;;;;;;;6.01;100.00;99645.67;1723048;81;25896;-76
2022/12/24 04:21:05;;;;;;;29.60;15.15;;;;;;;5.97;100.00;99653.69;1728341;81;25930;-76
2022/12/24 04:23:36;;;;;;;27.55;15.03;;;;;;;5.96;100.00;99649.89;1718849;81;27487;-76
2022/12/24 04:26:05;;;;;;;28.15;15.13;;;;;;;5.97;100.00;99656.34;1725778;81;26438;-76
2022/12/24 04:28:32;;;;;;;25.92;14.35;;;;;;;5.95;100.00;99651.72;1723606;81;26476;-76
2022/12/24 04:31:03;;;;;;;26.95;14.68;;;;;;;5.94;100.00;99661.21;1723273;81;25843;-76
2022/12/24 04:33:30;;;;;;;31.30;16.60;;;;;;;5.89;100.00;99655.10;1719360;81;25928;-76
2022/12/24 04:35:58;;;;;;;26.73;13.88;;;;;;;5.88;100.00;99653.44;1724852;81;27434;-77
2022/12/24 04:38:25;;;;;;;27.48;14.35;;;;;;;5.88;100.00;99650.78;1721941;81;26471;-76
2022/12/24 04:41:01;;;;;;;31.60;14.45;;;;;;;5.85;100.00;99651.65;1726839;81;25808;-76
2022/12/24 04:43:28;;;;;;;24.12;12.65;;;;;;;5.85;100.00;99645.00;1726820;81;25866;-76
2022/12/24 04:46:20;;;;;;;28.85;15.63;;;;;;;5.83;100.00;99653.14;1736190;81;26008;-76
2022/12/24 04:48:47;;;;;;;25.08;11.73;;;;;;;5.81;100.00;99647.67;1696112;83;28457;-76
2022/12/24 04:51:15;;;;;;;28.25;12.20;;;;;;;5.78;100.00;99645.36;1732138;82;25825;-76
2022/12/24 04:53:42;;;;;;;28.35;13.65;;;;;;;5.72;100.00;99651.39;1730501;82;26444;-76
2022/12/24 04:56:13;;;;;;;23.70;13.95;;;;;;;5.71;100.00;99646.58;1733140;82;26468;-76
2022/12/24 04:58:40;;;;;;;27.32;13.58;;;;;;;5.72;100.00;99652.72;1735703;80;25882;-76
2022/12/24 05:01:12;;;;;;;25.12;13.38;;;;;;;5.74;100.00;99648.05;1736042;81;28340;-76
2022/12/24 05:03:39;;;;;;;27.87;14.25;;;;;;;5.70;100.00;99652.08;1735785;80;26466;-76
2022/12/24 05:06:10;;;;;;;25.30;13.72;;;;;;;5.71;100.00;99655.07;1735133;82;26013;-76
2022/12/24 05:08:36;;;;;;;;;;;;;;;5.73;100.00;99665.82;1734019;82;26548;-76
2022/12/24 05:11:04;;;;;;;26.25;13.32;;;;;;;5.74;100.00;99656.86;1740215;81;25750;-76
2022/12/24 05:13:31;;;;;;;26.07;14.28;;;;;;;5.71;100.00;99656.41;1733791;82;27626;-76
2022/12/24 05:15:57;;;;;;;24.25;14.18;;;;;;;5.71;100.00;99657.73;1735138;82;25819;-76
2022/12/24 05:18:24;;;;;;;20.70;13.15;;;;;;;5.69;100.00;99651.24;1734841;82;25825;-76
2022/12/24 05:20:50;;;;;;;26.27;13.30;;;;;;;5.68;100.00;99658.07;1735357;82;26988;-76
2022/12/24 05:26:22;;;;;;;25.55;13.35;;;;;;;5.68;100.00;99652.27;1726927;82;28313;-75
2022/12/24 05:28:53;;;;;;;24.03;13.00;;;;;;;5.66;100.00;99656.93;1736471;81;25959;-75
2022/12/24 05:31:22;;;;;;;26.87;13.38;;;;;;;5.65;100.00;99653.94;1734744;82;25824;-75
2022/12/24 05:33:48;;;;;;;22.95;13.05;;;;;;;5.65;100.00;99659.74;1733344;81;25841;-75
2022/12/24 05:36:15;;;;;;;22.37;13.43;;;;;;;5.64;100.00;99664.75;1694917;84;25726;-75
2022/12/24 05:38:42;;;;;;;23.38;13.60;;;;;;;5.63;100.00;99660.42;1732120;82;27457;-75
2022/12/24 05:41:08;;;;;;;23.40;13.18;;;;;;;5.63;100.00;99667.06;1737652;81;26372;-75
2022/12/24 05:43:36;;;;;;;23.98;14.15;;;;;;;5.62;100.00;99662.28;1733602;82;26409;-75
2022/12/24 05:46:07;;;;;;;21.35;12.68;;;;;;;5.61;100.00;99659.78;1730386;82;26559;-76
2022/12/24 05:48:35;;;;;;;24.63;13.83;;;;;;;5.59;100.00;99658.64;1728377;82;25280;-75
2022/12/24 05:51:07;;;;;;;22.75;12.95;;;;;;;5.59;100.00;99657.80;1732638;82;27455;-75
2022/12/24 05:53:35;;;;;;;23.77;12.65;;;;;;;5.59;100.00;99662.62;1716650;82;25832;-76
2022/12/24 05:56:05;;;;;;;23.57;14.33;;;;;;;5.58;100.00;99664.94;1737136;82;25850;-76
2022/12/24 05:58:32;;;;;;;;;;;;;;;5.58;100.00;99668.92;1697828;83;25859;-76
2022/12/24 06:01:01;;;;;;;22.65;12.78;;;;;;;5.59;100.00;99672.41;1695531;83;26148;-76
2022/12/24 06:03:29;;;;;;;21.80;12.18;;;;;;;5.57;100.00;99677.08;1700390;83;27568;-76
2022/12/24 06:06:06;;;;;;;21.42;13.38;;;;;;;5.58;100.00;99686.72;1738341;82;25828;-77
2022/12/24 06:08:34;;;;;;;21.82;12.90;;;;;;;5.59;100.00;99689.19;1740179;82;25741;-76
2022/12/24 06:11:04;;;;;;;20.82;13.48;;;;;;;5.61;100.00;99682.36;1735874;81;26495;-76
2022/12/24 06:13:31;;;;;;;25.32;13.93;;;;;;;5.61;100.00;99685.02;1735341;81;26399;-76
2022/12/24 06:15:59;;;;;;;23.27;13.18;;;;;;;5.61;100.00;99687.17;1739637;82;28650;-76
2022/12/24 06:18:28;;;;;;;19.12;12.73;;;;;;;5.60;100.00;99685.55;1738218;82;25864;-76
2022/12/24 06:20:57;;;;;;;22.82;12.98;;;;;;;5.61;100.00;99688.50;1737473;81;25804;-76
2022/12/24 06:23:24;;;;;;;22.70;12.45;;;;;;;5.64;100.00;99684.67;1735807;81;25908;-76
2022/12/24 06:25:51;;;;;;;22.90;13.35;;;;;;;5.64;100.00;99693.48;1739383;82;26474;-76
2022/12/24 06:28:18;;;;;;;21.52;12.07;;;;;;;5.63;100.00;99700.27;1727986;82;27513;-76
2022/12/24 06:30:49;;;;;;;17.75;11.38;;;;;;;5.61;100.00;99698.30;1727629;82;25917;-76
2022/12/24 06:33:16;;;;;;;20.85;13.08;;;;;;;5.60;100.00;99707.29;1732514;82;26153;-76
2022/12/24 06:35:45;;;;;;;21.25;12.00;;;;;;;5.59;100.00;99705.62;1731425;82;26576;-76
2022/12/24 06:38:13;;;;;;;19.57;11.25;;;;;;;5.59;100.00;99704.29;1731553;81;25952;-76
2022/12/24 06:40:42;;;;;;;22.20;11.97;;;;;;;5.58;100.00;99706.11;1700220;82;28284;-76
2022/12/24 06:43:09;;;;;;;20.45;12.60;;;;;;;5.56;100.00;99700.67;1706317;82;25813;-76
2022/12/24 06:45:36;;;;;;;20.05;11.33;;;;;;;5.57;100.00;99700.98;1709592;82;26563;-75
2022/12/24 06:48:02;;;;;;;19.17;11.43;;;;;;;5.56;100.00;99702.81;1702941;82;25783;-76
2022/12/24 06:50:29;;;;;;;23.20;12.37;;;;;;;5.56;100.00;99704.66;1703805;82;26401;-76
2022/12/24 06:52:55;;;;;;;17.20;11.08;;;;;;;5.55;100.00;99704.32;1689943;83;27467;-76
2022/12/24 06:55:21;;;;;;;24.30;12.03;;;;;;;5.56;100.00;99707.31;1683702;83;26033;-76
2022/12/24 06:57:47;;;;;;;16.40;10.38;;;;;;;5.55;100.00;99710.96;1696154;83;25852;-76
2022/12/24 07:00:14;;;;;;;15.58;10.70;;;;;;;5.55;100.00;99719.77;1699500;83;25975;-76
2022/12/24 07:02:42;;;;;;;19.25;11.03;;;;;;;5.54;100.00;99724.73;1701211;83;25912;-76
2022/12/24 07:05:11;;;;;;;18.37;11.57;;;;;;;5.55;100.00;99720.26;1669405;84;27459;-76
2022/12/24 07:07:41;;;;;;;18.32;10.95;;;;;;;5.53;100.00;99723.10;1732182;80;25808;-76
2022/12/24 07:10:14;;;;;;;20.02;10.70;;;;;;;5.53;100.00;99727.58;1733146;81;25739;-76
2022/12/24 07:12:40;;;;;;;19.55;11.90;;;;;;;5.54;100.00;99724.73;1728085;80;25804;-76
2022/12/24 07:15:08;;;;;;;17.75;10.65;;;;;;;5.54;100.00;99730.05;1724700;81;25953;-76
2022/12/24 07:17:34;;;;;;;17.50;10.90;;;;;;;5.53;100.00;99738.20;1727294;81;28652;-76
2022/12/24 07:20:01;;;;;;;21.40;11.00;;;;;;;5.52;100.00;99737.37;1733669;81;25877;-76
2022/12/24 07:22:27;;;;;;;19.57;11.35;;;;;;;5.52;100.00;99743.20;1736760;81;26423;-77
2022/12/24 07:24:55;;;;;;;18.07;11.00;;;;;;;5.49;100.00;99745.18;1726893;81;26412;-76
2022/12/24 07:27:22;;;;;;;19.67;10.50;;;;;;;5.49;100.00;99749.69;1735130;81;25860;-76
2022/12/24 07:29:48;;;;;;;20.97;11.50;;;;;;;5.49;100.00;99759.78;1724095;81;26799;-76
2022/12/24 07:32:14;;;;;;;18.05;10.50;;;;;;;5.48;100.00;99759.97;1734438;81;26412;-76
2022/12/24 07:34:40;;;;;;;17.40;10.10;;;;;;;5.48;100.00;99754.66;1710580;82;25793;-76
2022/12/24 07:37:07;;;;;;;18.57;10.40;;;;;;;5.46;100.00;99765.96;1707753;82;26629;-76
2022/12/24 07:39:33;;;;;;;17.87;10.75;;;;;;;5.43;100.00;99770.31;1701307;82;25745;-76
2022/12/24 07:41:59;;;;;;;17.23;10.20;;;;;;;5.41;100.00;99774.45;1741670;81;27603;-76
2022/12/24 07:44:26;;;;;;;20.45;10.98;;;;;;;5.40;100.00;99769.31;1735036;81;26345;-76
2022/12/24 07:46:52;;;;;;;19.57;10.95;;;;;;;5.40;100.00;99775.95;1731620;81;25797;-76
2022/12/24 07:49:18;;;;;;;20.02;11.15;;;;;;;5.39;100.00;99783.58;1726436;81;25837;-76
2022/12/24 07:51:45;;;;;;;19.07;11.40;;;;;;;5.38;100.00;99779.29;1745341;81;25698;-76
2022/12/24 07:54:11;;;;;;;17.30;10.53;;;;;;;5.37;100.00;99778.45;1726918;81;27446;-76
2022/12/24 07:56:37;;;;;;;21.23;11.90;;;;;;;5.37;100.00;99786.42;1717828;82;25876;-76
2022/12/24 07:59:03;;;;;;;20.30;12.73;;;;;;;5.39;100.00;99790.22;1712888;82;25713;-76
2022/12/24 08:01:30;;;;;;;19.42;11.40;;;;;;;5.39;100.00;99797.70;1720182;82;25765;-76
2022/12/24 08:03:56;;;;;;;27.07;12.82;;;;;;;5.38;100.00;99794.73;1713958;82;25930;-76
2022/12/24 08:06:23;;;;;;;23.67;13.48;;;;;;;5.37;100.00;99793.06;1728338;82;27462;-76
2022/12/24 08:08:49;;;;;;;21.52;11.90;;;;;;;5.37;100.00;99793.06;1719060;81;26426;-76
2022/12/24 08:11:15;;;;;;;24.67;12.78;;;;;;;5.38;100.00;99794.73;1673611;84;26493;-76
2022/12/24 08:13:42;;;;;;;22.90;13.48;;;;;;;5.38;100.00;99787.25;1681935;83;25740;-76
2022/12/24 08:16:08;;;;;;;25.37;14.60;;;;;;;5.36;100.00;99793.24;1707509;82;26414;-76
2022/12/24 08:18:34;;;;;;;24.32;14.47;;;;;;;5.36;100.00;99794.56;1737637;81;27457;-76
2022/12/24 08:21:01;;;;;;;25.62;14.58;;;;;;;5.35;100.00;99801.70;1734341;82;25772;-76
2022/12/24 08:23:27;;;;;;;25.30;14.03;;;;;;;5.35;100.00;99804.36;1735738;81;25850;-76
2022/12/24 08:25:53;;;;;;;27.87;16.23;;;;;;;5.34;100.00;99805.38;1744960;80;25807;-76
2022/12/24 08:28:20;;;;;;;27.40;16.07;;;;;;;5.33;100.00;99814.81;1728695;81;25678;-76
2022/12/24 08:30:48;;;;;;;30.25;14.28;;;;;;;5.34;100.00;99812.02;1731994;81;27444;-75
2022/12/24 08:33:15;;;;;;;25.95;15.85;;;;;;;5.32;100.00;99820.62;1676305;84;25949;-76
2022/12/24 08:35:52;;;;;;;27.17;14.87;;;;;;;5.32;100.00;99818.48;1663236;84;25953;-76
2022/12/24 08:38:19;;;;;;;24.45;15.03;;;;;;;5.31;100.00;99822.97;1730439;81;26432;-76
2022/12/24 08:40:47;;;;;;;25.85;13.80;;;;;;;5.30;100.00;99825.28;1743174;81;26064;-76
2022/12/24 08:43:14;;;;;;;26.33;15.63;;;;;;;5.30;100.00;99831.91;1731949;81;27460;-76
2022/12/24 08:45:40;;;;;;;26.62;15.58;;;;;;;5.29;100.00;99834.75;1738588;80;26184;-76
2022/12/24 08:48:08;;;;;;;29.40;16.00;;;;;;;5.29;100.00;99834.75;1738084;81;26408;-76
2022/12/24 08:50:40;;;;;;;28.52;16.00;;;;;;;5.28;100.00;99833.91;1740005;81;25826;-76
2022/12/24 08:53:08;;;;;;;28.32;15.05;;;;;;;5.30;100.00;99838.55;1731817;81;26436;-76
2022/12/24 08:55:35;;;;;;;30.17;16.95;;;;;;;5.29;100.00;99838.73;1742070;81;27445;-76
2022/12/24 08:58:02;;;;;;;29.55;16.37;;;;;;;5.27;100.00;99843.39;1736261;81;25822;-76
2022/12/24 09:00:28;;;;;;;29.37;16.02;;;;;;;5.23;100.00;99838.93;1734344;81;25769;-76
2022/12/24 09:02:55;;;;;;;30.30;15.93;;;;;;;5.21;100.00;99842.26;1727705;81;26364;-76
2022/12/24 09:05:22;;;;;;;30.92;17.23;;;;;;;5.22;100.00;99841.73;1734939;81;25731;-76
2022/12/24 09:07:48;;;;;;;33.15;16.30;;;;;;;5.18;100.00;99847.06;1726430;81;27440;-76
2022/12/24 09:10:16;;;;;;;30.30;16.10;;;;;;;5.19;100.00;99846.91;1721832;81;25805;-76
2022/12/24 09:12:42;;;;;;;30.32;15.83;;;;;;;5.20;100.00;99853.02;1699016;82;26476;-76
2022/12/24 09:15:09;;;;;;;31.17;16.15;;;;;;;5.19;100.00;99850.06;1678863;84;26223;-77
2022/12/24 09:17:38;;;;;;;29.30;16.45;;;;;;;5.19;100.00;99858.86;1728620;80;25763;-76
2022/12/24 09:20:06;;;;;;;27.98;15.45;;;;;;;5.21;100.00;99863.50;1721960;81;27472;-77
2022/12/24 09:22:38;;;;;;;27.20;15.43;;;;;;;5.22;100.00;99860.31;1732929;81;26598;-76
2022/12/24 09:25:06;;;;;;;29.95;16.05;;;;;;;5.24;100.00;99865.80;1729148;81;26352;-77
2022/12/24 09:27:33;;;;;;;29.77;16.90;;;;;;;5.27;100.00;99865.47;1736722;81;26546;-77
2022/12/24 09:29:59;;;;;;;28.23;15.80;;;;;;;5.32;100.00;99870.27;1746880;80;26475;-76
2022/12/24 09:32:26;;;;;;;28.75;16.60;;;;;;;5.34;100.00;99865.61;1735310;82;27451;-77
2022/12/24 09:34:52;;;;;;;27.05;15.75;;;;;;;5.33;100.00;99878.05;1723727;82;25726;-76
2022/12/24 09:37:18;;;;;;;30.43;16.90;;;;;;;5.32;100.00;99884.88;1663874;84;25815;-76
2022/12/24 09:39:45;;;;;;;29.30;16.65;;;;;;;5.33;100.00;99878.05;1738410;81;26677;-76
2022/12/24 09:42:39;;;;;;;28.55;16.25;;;;;;;5.33;100.00;99887.84;1741233;81;25909;-77
2022/12/24 09:45:28;;;;;;;28.23;15.50;;;;;;;5.36;100.00;99884.86;1730424;81;27477;-76
2022/12/24 09:48:02;;;;;;;29.72;15.85;;;;;;;5.36;100.00;99886.19;1735118;80;26339;-85
2022/12/24 09:50:46;;;;;;;30.55;18.10;;;;;;;5.37;100.00;99888.66;1730157;81;26489;-85
2022/12/24 09:53:21;;;;;;;31.73;17.73;;;;;;;5.37;100.00;99892.64;1729020;82;26002;-83
2022/12/24 09:55:51;;;;;;;31.90;16.77;;;;;;;5.38;100.00;99894.31;1674365;84;25980;-83
2022/12/24 09:58:39;;;;;;;27.20;14.95;;;;;;;5.39;100.00;99900.44;1740510;81;27436;-82
2022/12/24 10:01:06;;;;;;;33.63;17.80;;;;;;;5.41;100.00;99911.70;1736441;81;25516;-83
2022/12/24 10:03:32;;;;;;;29.42;16.07;;;;;;;5.42;100.00;99910.23;1719962;82;25367;-84
2022/12/24 10:06:24;;;;;;;35.60;18.12;;;;;;;5.43;100.00;99908.41;1736285;82;26416;-82
2022/12/24 10:09:42;;;;;;;31.55;17.70;;;;;;;5.43;100.00;99909.74;1697540;82;25784;-75
2022/12/24 10:12:32;;;;;;;36.60;18.12;;;;;;;5.45;100.00;99913.86;1713014;81;28773;-75
2022/12/24 10:15:45;;;;;;;32.60;16.93;;;;;;;5.44;100.00;99919.35;1728393;81;25274;-75
2022/12/24 10:18:38;;;;;;;32.98;17.12;;;;;;;5.44;100.00;99927.31;1736192;81;25940;-75
2022/12/24 10:21:38;;;;;;;32.30;17.85;;;;;;;5.42;100.00;99933.30;1710126;81;25812;-75
2022/12/24 10:24:45;;;;;;;34.53;18.67;;;;;;;5.41;100.00;99936.45;1726520;81;25722;-74
2022/12/24 10:27:14;;;;;;;31.82;17.35;;;;;;;5.40;100.00;99932.64;1725003;81;27474;-75
2022/12/24 10:29:55;;;;;;;30.72;17.27;;;;;;;5.42;100.00;99935.95;1750669;81;26535;-74
2022/12/24 10:32:29;;;;;;;31.85;18.35;;;;;;;5.40;100.00;99936.62;1675807;84;33474;-75
2022/12/24 10:35:16;;;;;;;31.40;17.52;;;;;;;5.41;100.00;99939.10;1674971;84;25778;-75
2022/12/24 10:37:49;;;;;;;32.28;17.57;;;;;;;5.42;100.00;99939.94;1730882;80;25807;-75
2022/12/24 10:40:24;;;;;;;29.75;17.62;;;;;;;5.42;100.00;99941.27;1718212;81;28755;-75
2022/12/24 10:42:51;;;;;;;33.90;19.42;;;;;;;5.39;100.00;99948.23;1740471;81;25826;-75
2022/12/24 10:45:23;;;;;;;31.07;17.52;;;;;;;5.40;100.00;99945.44;1732891;81;25790;-75
2022/12/24 10:47:57;;;;;;;31.17;17.12;;;;;;;5.40;100.00;99952.07;1739238;80;26563;-75
2022/12/24 10:50:44;;;;;;;37.90;18.60;;;;;;;5.44;100.00;99953.39;1737357;80;25855;-76
2022/12/24 10:53:34;;;;;;;32.67;17.20;;;;;;;5.43;100.00;99952.23;1720394;81;28450;-76
2022/12/24 10:56:05;;;;;;;35.40;19.48;;;;;;;5.44;100.00;99949.41;1723856;81;26488;-87
2022/12/24 10:58:33;;;;;;;38.65;18.77;;;;;;;5.44;100.00;99950.73;1732478;81;25835;-85
2022/12/24 11:01:02;;;;;;;35.52;18.85;;;;;;;5.45;100.00;99952.89;1726529;81;26640;-90
2022/12/24 11:03:34;;;;;;;40.48;18.67;;;;;;;5.46;100.00;99954.05;1700531;82;25309;-75
2022/12/24 11:06:08;;;;;;;36.28;19.27;;;;;;;5.46;100.00;99955.86;1699166;82;27632;-75
2022/12/24 11:08:38;;;;;;;38.75;19.40;;;;;;;5.45;100.00;99956.88;1706847;82;25312;-75
2022/12/24 11:11:12;;;;;;;38.42;19.55;;;;;;;5.46;100.00;99962.02;1702930;82;25777;-75
2022/12/24 11:13:47;;;;;;;35.83;18.90;;;;;;;5.46;100.00;99963.83;1727190;81;25808;-75
2022/12/24 11:16:32;;;;;;;36.23;18.90;;;;;;;5.49;100.00;99970.14;1726901;81;25830;-83
2022/12/24 11:19:02;;;;;;;39.35;19.70;;;;;;;5.48;100.00;99971.97;1735873;81;27423;-82
2022/12/24 11:21:35;;;;;;;34.07;19.20;;;;;;;5.45;100.00;99978.93;1727737;81;26370;-76
2022/12/24 11:24:10;;;;;;;40.35;20.72;;;;;;;5.45;100.00;99981.59;1741280;81;25985;-75
2022/12/24 11:26:36;;;;;;;38.53;20.37;;;;;;;5.48;100.00;99983.08;1734868;81;25740;-75
2022/12/24 11:29:25;;;;;;;43.02;21.37;;;;;;;5.47;100.00;99986.23;1738783;81;25787;-75
2022/12/24 11:32:11;;;;;;;38.55;19.23;;;;;;;5.50;100.00;99991.70;1740409;80;27436;-76
2022/12/24 11:34:42;;;;;;;37.93;18.98;;;;;;;5.49;100.00;99998.03;1740363;80;25908;-75
2022/12/24 11:37:21;;;;;;;35.85;18.98;;;;;;;5.46;100.00;100001.02;1724801;82;25716;-75
2022/12/24 11:39:53;;;;;;;37.50;19.27;;;;;;;5.44;100.00;100005.17;1724494;80;25809;-75